createdAt,value
2018-12-09T06:50:40.676Z,67.73
2018-12-09T06:53:09.764Z,68.12
2018-12-09T06:55:38.987Z,68.07
2018-12-09T06:58:07.788Z,67.99
2018-12-09T07:00:36.990Z,67.93
2018-12-09T07:03:05.876Z,67.57
2018-12-09T07:05:34.779Z,67.39
2018-12-09T07:08:03.563Z,67.56
2018-12-09T07:10:32.310Z,67.16
2018-12-09T07:13:01.603Z,67.48
2018-12-09T07:15:30.489Z,67.59
2018-12-09T07:17:59.331Z,68.08
2018-12-09T07:20:28.228Z,69.09
2018-12-09T07:22:57.418Z,69.40
2018-12-09T07:25:26.559Z,69.23
2018-12-09T07:27:55.386Z,69.20
2018-12-09T07:30:24.224Z,69.64
2018-12-09T07:32:53.130Z,70.00
2018-12-09T07:35:21.996Z,69.69
2018-12-09T07:37:50.805Z,69.95
2018-12-09T07:40:19.734Z,70.28
2018-12-09T07:42:48.556Z,70.19
2018-12-09T07:45:17.395Z,69.68
2018-12-09T07:47:46.513Z,70.43
2018-12-09T07:50:15.610Z,71.15
2018-12-09T07:52:46.355Z,70.81
2018-12-09T07:55:15.644Z,71.08
2018-12-09T07:57:44.893Z,72.05
2018-12-09T08:00:13.732Z,71.95
2018-12-09T08:02:42.979Z,71.91
2018-12-09T08:05:11.872Z,72.50
2018-12-09T08:07:40.899Z,73.43
2018-12-09T08:10:09.956Z,73.81
2018-12-09T08:12:38.926Z,74.07
2018-12-09T08:15:08.025Z,74.21
2018-12-09T08:17:37.060Z,73.65
2018-12-09T08:20:06.415Z,74.12
2018-12-09T08:22:35.336Z,74.45
2018-12-09T08:25:04.661Z,74.53
2018-12-09T08:27:33.859Z,74.70
2018-12-09T08:30:02.759Z,73.78
2018-12-09T08:32:31.944Z,73.34
2018-12-09T08:35:01.093Z,73.24
2018-12-09T08:37:29.917Z,70.63
2018-12-09T08:39:59.063Z,71.36
2018-12-09T08:42:28.085Z,71.67
2018-12-09T08:44:57.118Z,71.04
2018-12-09T08:47:25.974Z,70.45
2018-12-09T08:49:54.866Z,70.89
2018-12-09T08:52:24.042Z,70.40
2018-12-09T08:54:53.207Z,71.17
2018-12-09T08:57:22.333Z,71.27
2018-12-09T08:59:51.638Z,70.19
2018-12-09T09:02:20.993Z,70.20
2018-12-09T09:04:50.175Z,69.91
2018-12-09T09:07:19.368Z,69.19
2018-12-09T09:09:48.556Z,69.30
2018-12-09T09:12:17.351Z,67.56
2018-12-09T09:14:46.570Z,67.43
2018-12-09T09:17:15.698Z,67.27
2018-12-09T09:19:44.544Z,67.16
2018-12-09T09:22:13.418Z,66.60
2018-12-09T09:24:42.169Z,66.01
2018-12-09T09:27:11.175Z,65.06
2018-12-09T09:29:39.968Z,63.81
2018-12-09T09:32:08.832Z,63.91
2018-12-09T09:34:37.658Z,63.59
2018-12-09T09:37:06.529Z,61.18
2018-12-09T09:39:35.318Z,61.07
2018-12-09T09:42:04.308Z,59.62
2018-12-09T09:44:33.123Z,57.44
2018-12-09T09:47:01.937Z,58.64
2018-12-09T09:49:30.760Z,60.57
2018-12-09T09:51:59.728Z,63.60
2018-12-09T09:54:28.539Z,64.92
2018-12-09T09:56:57.352Z,64.82
2018-12-09T09:59:26.230Z,66.92
2018-12-09T10:01:55.223Z,66.56
2018-12-09T10:04:24.053Z,65.51
2018-12-09T10:06:53.004Z,64.45
2018-12-09T10:09:21.915Z,64.74
2018-12-09T10:11:50.659Z,64.54
2018-12-09T10:14:19.451Z,64.14
2018-12-09T10:16:48.233Z,64.67
2018-12-09T10:19:17.170Z,64.16
2018-12-09T10:21:45.971Z,64.23
2018-12-09T10:24:14.744Z,64.56
2018-12-09T10:26:43.635Z,65.34
2018-12-09T10:29:12.496Z,65.49
2018-12-09T10:31:41.489Z,65.39
2018-12-09T10:34:10.564Z,65.58
2018-12-09T10:36:39.715Z,65.22
2018-12-09T10:39:09.034Z,65.31
2018-12-09T10:41:37.920Z,64.72
2018-12-09T10:44:06.664Z,64.49
2018-12-09T10:46:35.425Z,63.39
2018-12-09T10:49:04.247Z,63.36
2018-12-09T10:51:33.067Z,64.09
2018-12-09T10:54:02.011Z,63.16
2018-12-09T10:56:30.788Z,61.47
2018-12-09T10:59:00.273Z,61.91
2018-12-09T11:01:34.684Z,62.06
2018-12-09T11:04:03.922Z,61.20
2018-12-09T11:06:32.911Z,61.68
2018-12-09T11:09:01.799Z,60.75
2018-12-09T11:11:30.640Z,59.71
2018-12-09T11:13:59.520Z,60.26
2018-12-09T11:16:28.490Z,59.03
2018-12-09T11:18:57.638Z,58.88
2018-12-09T11:21:30.839Z,58.50
2018-12-09T11:23:58.057Z,59.04
2018-12-09T11:26:26.807Z,59.24
2018-12-09T11:28:55.767Z,59.24
2018-12-09T11:31:24.545Z,56.26
2018-12-09T11:33:53.548Z,48.30
2018-12-09T11:36:22.693Z,42.72
2018-12-09T11:38:51.579Z,39.69
2018-12-09T11:41:20.352Z,38.75
2018-12-09T11:43:49.331Z,37.10
2018-12-09T11:46:18.113Z,38.41
2018-12-09T11:48:47.035Z,38.72
2018-12-09T11:51:15.978Z,36.63
2018-12-09T11:53:44.838Z,38.33
2018-12-09T11:56:13.787Z,38.06
2018-12-09T11:58:42.614Z,38.46
2018-12-09T12:01:11.442Z,34.19
2018-12-09T12:03:40.334Z,33.11
2018-12-09T12:06:09.192Z,32.31
2018-12-09T12:08:38.231Z,36.22
2018-12-09T12:11:07.017Z,40.38
2018-12-09T12:13:35.887Z,42.66
2018-12-09T12:16:04.673Z,41.70
2018-12-09T12:18:33.540Z,43.19
2018-12-09T12:21:02.479Z,44.48
2018-12-09T12:23:31.324Z,40.15
2018-12-09T12:26:00.363Z,38.13
2018-12-09T12:28:29.350Z,35.88
2018-12-09T12:30:58.137Z,34.61
2018-12-09T12:33:26.952Z,35.48
2018-12-09T12:35:55.895Z,33.99
2018-12-09T12:38:24.777Z,34.14
2018-12-09T12:40:53.564Z,33.08
2018-12-09T12:43:22.384Z,32.77
2018-12-09T12:45:51.478Z,33.86
2018-12-09T12:48:21.035Z,32.42
2018-12-09T12:53:17.574Z,32.60
2018-12-09T12:55:46.395Z,33.03
2018-12-09T12:58:15.193Z,35.55
2018-12-09T13:00:43.995Z,37.08
2018-12-09T13:03:12.850Z,38.91
2018-12-09T13:05:41.676Z,40.76
2018-12-09T13:08:11.164Z,42.33
2018-12-09T13:10:40.111Z,42.79
2018-12-09T13:13:09.060Z,45.06
2018-12-09T13:15:37.975Z,46.45
2018-12-09T13:18:06.840Z,47.17
2018-12-09T13:20:35.692Z,47.59
2018-12-09T13:23:04.584Z,48.54
2018-12-09T13:25:33.489Z,47.54
2018-12-09T13:28:02.708Z,48.46
2018-12-09T13:30:31.574Z,48.61
2018-12-09T13:33:00.383Z,49.68
2018-12-09T13:35:29.219Z,51.11
2018-12-09T13:37:58.020Z,51.71
2018-12-09T13:40:26.932Z,52.67
2018-12-09T13:42:55.747Z,52.60
2018-12-09T13:45:24.645Z,52.55
2018-12-09T13:47:53.835Z,52.65
2018-12-09T13:50:22.903Z,53.91
2018-12-09T13:52:51.811Z,54.17
2018-12-09T13:55:20.681Z,55.54
2018-12-09T13:57:49.498Z,56.60
2018-12-09T14:00:19.986Z,56.05
2018-12-09T14:02:49.236Z,56.90
2018-12-09T14:05:18.206Z,57.24
2018-12-09T14:07:47.127Z,57.53
2018-12-09T14:10:16.087Z,56.74
2018-12-09T14:12:45.018Z,56.53
2018-12-09T14:15:14.481Z,57.72
2018-12-09T14:17:44.190Z,58.42
2018-12-09T14:20:14.001Z,59.20
2018-12-09T14:22:43.550Z,59.48
2018-12-09T14:25:12.370Z,59.72
2018-12-09T14:27:41.350Z,60.00
2018-12-09T14:30:10.360Z,61.07
2018-12-09T14:32:39.317Z,61.82
2018-12-09T14:35:10.143Z,62.21
2018-12-09T14:37:39.018Z,62.56
2018-12-09T14:40:10.008Z,63.84
2018-12-09T14:42:38.951Z,64.48
2018-12-09T14:45:09.729Z,65.57
2018-12-09T14:47:38.650Z,66.33
2018-12-09T14:50:08.793Z,66.12
2018-12-09T14:52:37.670Z,66.46
2018-12-09T14:55:07.035Z,67.05
2018-12-09T14:57:36.275Z,67.73
2018-12-09T15:00:06.649Z,67.60
2018-12-09T15:02:35.881Z,67.93
2018-12-09T15:05:04.952Z,68.30
2018-12-09T15:07:33.811Z,68.30
2018-12-09T15:10:08.524Z,68.53
2018-12-09T15:12:34.605Z,67.63
2018-12-09T15:15:03.996Z,67.99
2018-12-09T15:17:33.134Z,67.68
2018-12-09T15:20:02.404Z,67.88
2018-12-09T15:22:31.636Z,67.42
2018-12-09T15:25:00.896Z,67.45
2018-12-09T15:27:29.823Z,68.06
2018-12-09T15:29:58.948Z,68.41
2018-12-09T15:32:28.011Z,68.69
2018-12-09T15:34:56.920Z,68.90
2018-12-09T15:37:26.230Z,69.80
2018-12-09T15:39:55.167Z,70.22
2018-12-09T15:42:23.969Z,69.85
2018-12-09T15:44:52.746Z,70.23
2018-12-09T15:47:21.568Z,70.10
2018-12-09T15:49:50.335Z,69.97
2018-12-09T15:52:19.261Z,70.29
2018-12-09T15:54:48.134Z,69.74
2018-12-09T15:57:17.049Z,70.07
2018-12-09T15:59:45.897Z,69.97
2018-12-09T16:02:14.972Z,69.49
2018-12-09T16:04:43.718Z,69.89
2018-12-09T16:07:12.964Z,69.81
2018-12-09T16:09:42.182Z,69.70
2018-12-09T16:12:11.543Z,70.35
2018-12-09T16:14:40.531Z,70.00
2018-12-09T16:17:09.566Z,70.47
2018-12-09T16:19:38.519Z,70.77
2018-12-09T16:22:07.659Z,70.66
2018-12-09T16:24:36.865Z,70.46
2018-12-09T16:27:05.730Z,70.64
2018-12-09T16:29:34.721Z,69.74
2018-12-09T16:32:03.700Z,69.70
2018-12-09T16:34:33.435Z,70.96
2018-12-09T16:37:02.433Z,70.89
2018-12-09T16:39:31.272Z,71.55
2018-12-09T16:42:00.206Z,71.74
2018-12-09T16:44:29.055Z,71.41
2018-12-09T16:46:58.677Z,71.56
2018-12-09T16:49:27.534Z,71.22
2018-12-09T16:51:56.454Z,71.14
2018-12-09T16:54:25.857Z,70.35
2018-12-09T16:56:54.739Z,68.67
2018-12-09T16:59:23.743Z,67.95
2018-12-09T17:01:52.793Z,66.67
2018-12-09T17:04:21.727Z,66.52
2018-12-09T17:06:50.567Z,66.18
2018-12-09T17:09:19.507Z,65.98
2018-12-09T17:11:48.701Z,66.06
2018-12-09T17:14:17.498Z,65.82
2018-12-09T17:16:46.423Z,65.87
2018-12-09T17:19:15.266Z,66.28
2018-12-09T17:21:44.075Z,66.34
2018-12-09T17:24:12.971Z,66.72
2018-12-09T17:26:41.937Z,66.45
2018-12-09T17:29:10.723Z,66.67
2018-12-09T17:31:40.103Z,67.47
2018-12-09T17:49:57.596Z,66.20
2018-12-09T17:52:26.959Z,66.31
2018-12-09T17:54:55.781Z,67.15
2018-12-09T17:57:24.649Z,67.27
2018-12-09T17:59:53.504Z,67.82
2018-12-09T18:02:22.320Z,67.60
2018-12-09T18:04:52.210Z,67.97
2018-12-09T18:07:21.115Z,67.93
2018-12-09T18:09:50.000Z,67.92
2018-12-09T18:12:18.852Z,68.28
2018-12-09T18:14:47.887Z,68.10
2018-12-09T18:17:16.710Z,68.78
2018-12-09T18:19:45.648Z,69.22
2018-12-09T18:22:14.597Z,69.11
2018-12-09T18:24:44.778Z,69.71
2018-12-09T18:27:13.548Z,69.44
2018-12-09T18:29:42.456Z,69.82
2018-12-09T18:32:11.448Z,71.20
2018-12-09T18:34:40.440Z,71.35
2018-12-09T18:37:09.315Z,71.65
2018-12-09T18:39:39.217Z,72.19
2018-12-09T18:42:08.135Z,72.48
2018-12-09T18:44:37.017Z,72.29
2018-12-09T18:47:06.022Z,71.68
2018-12-09T18:49:34.927Z,71.69
2018-12-09T18:52:03.900Z,71.92
2018-12-09T18:54:32.739Z,71.71
2018-12-09T18:57:01.657Z,72.09
2018-12-09T18:59:30.655Z,73.22
2018-12-09T19:01:59.663Z,72.71
2018-12-09T19:04:29.231Z,72.55
2018-12-09T19:06:58.160Z,72.85
2018-12-09T19:09:27.092Z,72.77
2018-12-09T19:11:56.267Z,72.77
2018-12-09T19:14:25.341Z,73.48
2018-12-09T19:16:54.230Z,74.40
2018-12-09T19:19:23.122Z,74.58
2018-12-09T19:21:52.010Z,74.02
2018-12-09T19:24:22.218Z,74.38
2018-12-09T19:26:51.173Z,73.65
2018-12-09T19:29:20.011Z,73.80
2018-12-09T19:31:48.901Z,73.69
2018-12-09T19:34:17.901Z,74.33
2018-12-09T19:36:46.888Z,74.16
2018-12-09T19:39:15.702Z,73.77
2018-12-09T19:41:44.665Z,73.93
2018-12-09T19:44:13.576Z,74.75
2018-12-09T19:46:42.460Z,75.31
2018-12-09T19:49:11.587Z,74.81
2018-12-09T19:51:40.704Z,75.77
2018-12-09T19:54:09.934Z,75.71
2018-12-09T19:56:40.732Z,76.34
2018-12-09T19:59:09.662Z,76.20
2018-12-09T20:01:38.856Z,76.26
2018-12-09T20:04:07.739Z,76.54
2018-12-09T20:06:36.932Z,77.00
2018-12-09T20:09:06.483Z,76.57
2018-12-09T20:11:35.369Z,75.78
2018-12-09T20:14:04.512Z,74.96
2018-12-09T20:16:33.607Z,74.49
2018-12-09T20:19:02.621Z,74.31
2018-12-09T20:21:31.817Z,73.96
2018-12-09T20:24:00.860Z,73.68
2018-12-09T20:26:29.883Z,73.67
2018-12-09T20:28:59.096Z,73.15
2018-12-09T20:31:27.879Z,72.10
2018-12-09T20:33:57.114Z,72.17
2018-12-09T20:36:25.909Z,72.05
2018-12-09T20:38:54.763Z,71.23
2018-12-09T20:41:23.565Z,71.01
2018-12-09T20:43:52.456Z,70.79
2018-12-09T20:46:21.351Z,70.66
2018-12-09T20:48:50.142Z,71.13
2018-12-09T20:51:19.007Z,71.03
2018-12-09T20:53:47.837Z,71.13
2018-12-09T20:56:16.680Z,71.70
2018-12-09T20:58:45.498Z,72.35
2018-12-09T21:01:14.340Z,72.77
2018-12-09T21:03:43.207Z,73.08
2018-12-09T21:06:12.136Z,72.91
2018-12-09T21:08:40.906Z,73.24
2018-12-09T21:11:09.794Z,74.18
2018-12-09T21:13:38.621Z,73.99
2018-12-09T21:16:07.570Z,73.64
2018-12-09T21:18:36.306Z,74.48
2018-12-09T21:21:05.298Z,74.85
2018-12-09T21:23:34.127Z,75.66
2018-12-09T21:26:02.955Z,75.64
2018-12-09T21:28:31.773Z,75.33
2018-12-09T21:31:00.639Z,75.48
2018-12-09T21:33:29.595Z,75.62
2018-12-09T21:35:58.409Z,75.39
2018-12-09T21:38:27.384Z,75.50
2018-12-09T21:40:56.211Z,75.58
2018-12-09T21:43:25.054Z,75.71
2018-12-09T21:45:53.867Z,76.24
2018-12-09T21:48:22.676Z,76.22
2018-12-09T21:50:51.540Z,76.42
2018-12-09T21:53:20.362Z,76.28
2018-12-09T21:55:49.250Z,76.71
2018-12-09T21:58:18.100Z,76.97
2018-12-09T22:00:46.923Z,77.34
2018-12-09T22:03:15.768Z,77.91
2018-12-09T22:05:44.888Z,78.51
2018-12-09T22:08:14.109Z,78.44
2018-12-09T22:10:43.272Z,78.38
2018-12-09T22:13:12.255Z,77.78
2018-12-09T22:15:41.026Z,78.39
2018-12-09T22:18:10.206Z,78.59
2018-12-09T22:20:39.333Z,78.60
2018-12-09T22:23:08.436Z,79.03
2018-12-09T22:25:37.678Z,78.37
2018-12-09T22:28:06.879Z,78.45
2018-12-09T22:30:35.919Z,78.65
2018-12-09T22:33:05.054Z,78.69
2018-12-09T22:35:34.209Z,78.87
2018-12-09T22:38:03.244Z,79.44
2018-12-09T22:40:32.503Z,79.77
2018-12-09T22:43:01.704Z,79.97
2018-12-09T22:45:30.519Z,80.25
2018-12-09T22:47:59.421Z,80.36
2018-12-09T22:50:28.590Z,80.33
2018-12-09T22:52:57.634Z,80.27
2018-12-09T22:55:26.483Z,80.49
2018-12-09T22:57:55.699Z,80.68
2018-12-09T23:00:28.839Z,80.90
2018-12-09T23:03:03.100Z,81.00
2018-12-09T23:05:32.575Z,81.03
2018-12-09T23:08:01.776Z,81.50
2018-12-09T23:10:30.861Z,81.42
2018-12-09T23:13:00.078Z,81.29
2018-12-09T23:15:29.239Z,80.82
2018-12-09T23:17:58.422Z,80.50
2018-12-09T23:20:27.654Z,80.46
2018-12-09T23:22:56.555Z,80.69
2018-12-09T23:25:25.599Z,81.15
2018-12-09T23:27:54.818Z,80.84
2018-12-09T23:30:24.019Z,80.89
2018-12-09T23:32:53.408Z,81.34
2018-12-09T23:35:22.551Z,81.40
2018-12-09T23:37:51.721Z,81.68
2018-12-09T23:40:20.848Z,81.46
2018-12-09T23:42:49.736Z,81.29
2018-12-09T23:45:18.894Z,81.42
2018-12-09T23:47:47.937Z,81.83
2018-12-09T23:50:16.938Z,81.98
2018-12-09T23:52:45.811Z,81.70
2018-12-09T23:55:14.672Z,81.92
2018-12-09T23:57:43.626Z,82.01
